sensor_id;sensor_type;location;lat;lon;timestamp;pressure;altitude;pressure_sealevel;temperature;humidity
74163;BME280;62515;52.758;5.076;2022-09-09T00:00:31;100777.63;;;15.26;95.40
74163;BME280;62515;52.758;5.076;2022-09-09T00:03:03;100775.09;;;15.15;96.10
74163;BME280;62515;52.758;5.076;2022-09-09T00:05:37;100770.44;;;15.07;96.29
74163;BME280;62515;52.758;5.076;2022-09-09T00:08:14;100766.88;;;14.97;96.61
74163;BME280;62515;52.758;5.076;2022-09-09T00:10:48;100760.09;;;14.93;96.96
74163;BME280;62515;52.758;5.076;2022-09-09T00:13:22;100758.16;;;14.86;97.32
74163;BME280;62515;52.758;5.076;2022-09-09T00:15:56;100752.75;;;14.76;97.99
74163;BME280;62515;52.758;5.076;2022-09-09T00:18:28;100757.00;;;14.69;98.34
74163;BME280;62515;52.758;5.076;2022-09-09T00:21:00;100744.00;;;14.64;98.13
74163;BME280;62515;52.758;5.076;2022-09-09T00:23:31;100750.19;;;14.65;98.44
74163;BME280;62515;52.758;5.076;2022-09-09T00:26:04;100754.00;;;14.62;98.58
74163;BME280;62515;52.758;5.076;2022-09-09T00:28:41;100745.09;;;14.52;99.04
74163;BME280;62515;52.758;5.076;2022-09-09T00:31:12;100748.19;;;14.48;99.46
74163;BME280;62515;52.758;5.076;2022-09-09T00:33:41;100750.16;;;14.46;99.72
74163;BME280;62515;52.758;5.076;2022-09-09T00:36:13;100741.69;;;14.41;99.97
74163;BME280;62515;52.758;5.076;2022-09-09T00:38:45;100750.25;;;14.35;100.00
74163;BME280;62515;52.758;5.076;2022-09-09T00:41:19;100745.41;;;14.29;100.00
74163;BME280;62515;52.758;5.076;2022-09-09T00:43:56;100748.09;;;14.29;100.00
74163;BME280;62515;52.758;5.076;2022-09-09T00:46:40;100749.22;;;14.26;100.00
74163;BME280;62515;52.758;5.076;2022-09-09T00:49:17;100746.84;;;14.33;100.00
74163;BME280;62515;52.758;5.076;2022-09-09T00:51:52;100745.34;;;14.40;100.00
74163;BME280;62515;52.758;5.076;2022-09-09T00:54:40;100750.75;;;14.49;100.00
74163;BME280;62515;52.758;5.076;2022-09-09T00:57:23;100755.66;;;14.54;100.00
74163;BME280;62515;52.758;5.076;2022-09-09T00:59:57;100756.69;;;14.62;99.93
74163;BME280;62515;52.758;5.076;2022-09-09T01:02:28;100753.75;;;14.75;99.00
74163;BME280;62515;52.758;5.076;2022-09-09T01:05:00;100753.03;;;14.73;99.07
74163;BME280;62515;52.758;5.076;2022-09-09T01:07:30;100746.69;;;14.74;98.81
74163;BME280;62515;52.758;5.076;2022-09-09T01:10:00;100739.78;;;14.72;98.96
74163;BME280;62515;52.758;5.076;2022-09-09T01:12:38;100739.91;;;14.70;99.22
74163;BME280;62515;52.758;5.076;2022-09-09T01:15:16;100732.16;;;14.67;99.02
74163;BME280;62515;52.758;5.076;2022-09-09T01:17:55;100734.81;;;14.57;99.68
74163;BME280;62515;52.758;5.076;2022-09-09T01:20:28;100733.84;;;14.58;99.59
74163;BME280;62515;52.758;5.076;2022-09-09T01:23:09;100729.16;;;14.51;99.93
74163;BME280;62515;52.758;5.076;2022-09-09T01:26:11;100723.09;;;14.39;100.00
74163;BME280;62515;52.758;5.076;2022-09-09T01:28:43;100724.06;;;14.38;100.00
74163;BME280;62515;52.758;5.076;2022-09-09T01:31:16;100721.91;;;14.32;100.00
74163;BME280;62515;52.758;5.076;2022-09-09T01:33:46;100720.75;;;14.25;100.00
74163;BME280;62515;52.758;5.076;2022-09-09T01:36:19;100722.16;;;14.20;100.00
74163;BME280;62515;52.758;5.076;2022-09-09T01:38:50;100715.66;;;14.22;100.00
74163;BME280;62515;52.758;5.076;2022-09-09T01:41:19;100717.09;;;14.26;100.00
74163;BME280;62515;52.758;5.076;2022-09-09T01:43:54;100713.50;;;14.37;100.00
74163;BME280;62515;52.758;5.076;2022-09-09T01:46:22;100718.03;;;14.46;99.90
74163;BME280;62515;52.758;5.076;2022-09-09T01:48:51;100711.66;;;14.47;99.61
74163;BME280;62515;52.758;5.076;2022-09-09T01:51:20;100713.94;;;14.51;99.41
74163;BME280;62515;52.758;5.076;2022-09-09T01:53:47;100707.03;;;14.49;99.00
74163;BME280;62515;52.758;5.076;2022-09-09T01:56:26;100714.09;;;14.50;99.28
74163;BME280;62515;52.758;5.076;2022-09-09T01:59:03;100715.06;;;14.49;99.31
74163;BME280;62515;52.758;5.076;2022-09-09T02:01:42;100720.72;;;14.46;99.35
74163;BME280;62515;52.758;5.076;2022-09-09T02:04:27;100716.59;;;14.42;99.70
74163;BME280;62515;52.758;5.076;2022-09-09T02:06:56;100710.94;;;14.35;99.98
74163;BME280;62515;52.758;5.076;2022-09-09T02:09:29;100713.88;;;14.32;99.96
74163;BME280;62515;52.758;5.076;2022-09-09T02:12:02;100717.94;;;14.27;100.00
74163;BME280;62515;52.758;5.076;2022-09-09T02:14:41;100715.38;;;14.25;100.00
74163;BME280;62515;52.758;5.076;2022-09-09T02:17:10;100719.50;;;14.29;100.00
74163;BME280;62515;52.758;5.076;2022-09-09T02:19:57;100715.97;;;14.29;100.00
74163;BME280;62515;52.758;5.076;2022-09-09T02:22:41;100712.31;;;14.30;100.00
74163;BME280;62515;52.758;5.076;2022-09-09T02:25:13;100705.97;;;14.31;100.00
74163;BME280;62515;52.758;5.076;2022-09-09T02:27:45;100707.38;;;14.25;100.00
74163;BME280;62515;52.758;5.076;2022-09-09T02:30:14;100714.53;;;14.25;100.00
74163;BME280;62515;52.758;5.076;2022-09-09T02:32:50;100719.63;;;14.28;100.00
74163;BME280;62515;52.758;5.076;2022-09-09T02:35:23;100716.88;;;14.39;100.00
74163;BME280;62515;52.758;5.076;2022-09-09T02:37:53;100714.09;;;14.40;100.00
74163;BME280;62515;52.758;5.076;2022-09-09T02:40:22;100708.28;;;14.45;100.00
74163;BME280;62515;52.758;5.076;2022-09-09T02:42:58;100711.53;;;14.48;100.00
74163;BME280;62515;52.758;5.076;2022-09-09T02:45:34;100715.06;;;14.49;100.00
74163;BME280;62515;52.758;5.076;2022-09-09T02:48:07;100719.69;;;14.47;100.00
74163;BME280;62515;52.758;5.076;2022-09-09T02:50:41;100712.94;;;14.43;100.00
74163;BME280;62515;52.758;5.076;2022-09-09T02:53:16;100712.22;;;14.41;100.00
74163;BME280;62515;52.758;5.076;2022-09-09T02:55:47;100706.88;;;14.41;100.00
74163;BME280;62515;52.758;5.076;2022-09-09T02:58:21;100710.41;;;14.41;100.00
74163;BME280;62515;52.758;5.076;2022-09-09T03:01:00;100711.81;;;14.36;100.00
74163;BME280;62515;52.758;5.076;2022-09-09T03:03:30;100709.25;;;14.34;100.00
74163;BME280;62515;52.758;5.076;2022-09-09T03:06:00;100708.84;;;14.39;100.00
74163;BME280;62515;52.758;5.076;2022-09-09T03:08:27;100709.81;;;14.38;100.00
74163;BME280;62515;52.758;5.076;2022-09-09T03:10:58;100707.59;;;14.43;100.00
74163;BME280;62515;52.758;5.076;2022-09-09T03:13:32;100705.31;;;14.38;100.00
74163;BME280;62515;52.758;5.076;2022-09-09T03:15:59;100704.91;;;14.33;100.00
74163;BME280;62515;52.758;5.076;2022-09-09T03:18:30;100706.97;;;14.30;100.00
74163;BME280;62515;52.758;5.076;2022-09-09T03:20:57;100695.97;;;14.23;100.00
74163;BME280;62515;52.758;5.076;2022-09-09T03:23:26;100698.75;;;14.22;100.00
74163;BME280;62515;52.758;5.076;2022-09-09T03:25:53;100695.38;;;14.20;100.00
74163;BME280;62515;52.758;5.076;2022-09-09T03:28:31;100701.97;;;14.15;100.00
74163;BME280;62515;52.758;5.076;2022-09-09T03:31:01;100694.94;;;14.14;100.00
74163;BME280;62515;52.758;5.076;2022-09-09T03:33:32;100692.53;;;14.11;100.00
74163;BME280;62515;52.758;5.076;2022-09-09T03:36:01;100688.44;;;14.07;100.00
74163;BME280;62515;52.758;5.076;2022-09-09T03:38:29;100698.88;;;14.10;100.00
74163;BME280;62515;52.758;5.076;2022-09-09T03:40:56;100690.97;;;14.09;100.00
74163;BME280;62515;52.758;5.076;2022-09-09T03:43:28;100682.09;;;14.08;100.00
74163;BME280;62515;52.758;5.076;2022-09-09T03:45:56;100684.06;;;14.06;100.00
74163;BME280;62515;52.758;5.076;2022-09-09T03:48:25;100686.88;;;14.05;100.00
74163;BME280;62515;52.758;5.076;2022-09-09T03:50:55;100686.28;;;14.01;100.00
74163;BME280;62515;52.758;5.076;2022-09-09T03:53:29;100690.50;;;13.94;100.00
74163;BME280;62515;52.758;5.076;2022-09-09T03:55:57;100687.09;;;13.92;100.00
74163;BME280;62515;52.758;5.076;2022-09-09T03:58:28;100693.47;;;13.91;100.00
74163;BME280;62515;52.758;5.076;2022-09-09T04:01:09;100678.19;;;13.82;100.00
74163;BME280;62515;52.758;5.076;2022-09-09T04:03:38;100677.75;;;13.77;100.00
74163;BME280;62515;52.758;5.076;2022-09-09T04:06:07;100677.75;;;13.77;100.00
74163;BME280;62515;52.758;5.076;2022-09-09T04:08:34;100678.63;;;13.78;100.00
74163;BME280;62515;52.758;5.076;2022-09-09T04:11:03;100679.59;;;13.77;100.00
74163;BME280;62515;52.758;5.076;2022-09-09T04:13:34;100680.03;;;13.82;100.00
74163;BME280;62515;52.758;5.076;2022-09-09T04:16:02;100676.50;;;13.81;100.00
74163;BME280;62515;52.758;5.076;2022-09-09T04:18:33;100675.13;;;13.87;100.00
74163;BME280;62515;52.758;5.076;2022-09-09T04:21:02;100668.97;;;13.96;100.00
74163;BME280;62515;52.758;5.076;2022-09-09T04:23:32;100670.66;;;13.97;100.00
74163;BME280;62515;52.758;5.076;2022-09-09T04:26:01;100662.63;;;13.97;100.00
74163;BME280;62515;52.758;5.076;2022-09-09T04:28:31;100667.97;;;13.97;100.00
74163;BME280;62515;52.758;5.076;2022-09-09T04:31:04;100663.03;;;13.92;100.00
74163;BME280;62515;52.758;5.076;2022-09-09T04:33:33;100669.91;;;13.85;100.00
74163;BME280;62515;52.758;5.076;2022-09-09T04:36:06;100659.63;;;13.81;100.00
74163;BME280;62515;52.758;5.076;2022-09-09T04:38:34;100654.06;;;13.73;100.00
74163;BME280;62515;52.758;5.076;2022-09-09T04:41:02;100664.94;;;13.71;100.00
74163;BME280;62515;52.758;5.076;2022-09-09T04:43:30;100659.69;;;13.70;100.00
74163;BME280;62515;52.758;5.076;2022-09-09T04:45:59;100658.84;;;13.69;100.00
74163;BME280;62515;52.758;5.076;2022-09-09T04:48:26;100662.88;;;13.84;100.00
74163;BME280;62515;52.758;5.076;2022-09-09T04:50:57;100658.84;;;13.99;100.00
74163;BME280;62515;52.758;5.076;2022-09-09T04:53:25;100659.16;;;14.15;100.00
74163;BME280;62515;52.758;5.076;2022-09-09T04:56:00;100658.22;;;14.26;100.00
74163;BME280;62515;52.758;5.076;2022-09-09T04:58:29;100663.00;;;14.32;100.00
74163;BME280;62515;52.758;5.076;2022-09-09T05:01:03;100659.69;;;14.40;100.00
74163;BME280;62515;52.758;5.076;2022-09-09T05:03:30;100656.44;;;14.46;100.00
74163;BME280;62515;52.758;5.076;2022-09-09T05:06:07;100656.28;;;14.47;100.00
74163;BME280;62515;52.758;5.076;2022-09-09T05:08:36;100655.19;;;14.50;100.00
74163;BME280;62515;52.758;5.076;2022-09-09T05:11:04;100655.59;;;14.55;100.00
74163;BME280;62515;52.758;5.076;2022-09-09T05:13:31;100658.00;;;14.58;100.00
74163;BME280;62515;52.758;5.076;2022-09-09T05:15:59;100658.69;;;14.60;100.00
74163;BME280;62515;52.758;5.076;2022-09-09T05:18:26;100650.94;;;14.57;100.00
74163;BME280;62515;52.758;5.076;2022-09-09T05:20:58;100650.81;;;14.58;100.00
74163;BME280;62515;52.758;5.076;2022-09-09T05:23:27;100659.13;;;14.55;100.00
74163;BME280;62515;52.758;5.076;2022-09-09T05:25:55;100649.28;;;14.56;100.00
74163;BME280;62515;52.758;5.076;2022-09-09T05:28:23;100650.81;;;14.49;100.00
74163;BME280;62515;52.758;5.076;2022-09-09T05:30:56;100662.06;;;14.43;100.00
74163;BME280;62515;52.758;5.076;2022-09-09T05:33:24;100666.44;;;14.44;100.00
74163;BME280;62515;52.758;5.076;2022-09-09T05:35:59;100659.81;;;14.48;100.00
74163;BME280;62515;52.758;5.076;2022-09-09T05:38:27;100656.84;;;14.51;100.00
74163;BME280;62515;52.758;5.076;2022-09-09T05:40:56;100646.88;;;14.53;100.00
74163;BME280;62515;52.758;5.076;2022-09-09T05:43:24;100648.69;;;14.52;100.00
74163;BME280;62515;52.758;5.076;2022-09-09T05:45:59;100648.69;;;14.52;100.00
74163;BME280;62515;52.758;5.076;2022-09-09T05:48:29;100645.59;;;14.57;100.00
74163;BME280;62515;52.758;5.076;2022-09-09T05:50:57;100644.47;;;14.59;100.00
74163;BME280;62515;52.758;5.076;2022-09-09T05:53:24;100647.56;;;14.64;100.00
74163;BME280;62515;52.758;5.076;2022-09-09T05:55:59;100649.84;;;14.69;100.00
74163;BME280;62515;52.758;5.076;2022-09-09T05:58:27;100646.31;;;14.69;100.00
74163;BME280;62515;52.758;5.076;2022-09-09T06:01:00;100645.06;;;14.73;100.00
74163;BME280;62515;52.758;5.076;2022-09-09T06:03:27;100648.00;;;14.79;100.00
74163;BME280;62515;52.758;5.076;2022-09-09T06:05:58;100651.50;;;14.89;100.00
74163;BME280;62515;52.758;5.076;2022-09-09T06:08:27;100654.63;;;14.94;100.00
74163;BME280;62515;52.758;5.076;2022-09-09T06:11:02;100647.00;;;14.99;99.96
74163;BME280;62515;52.758;5.076;2022-09-09T06:13:30;100647.81;;;15.09;99.17
74163;BME280;62515;52.758;5.076;2022-09-09T06:15:57;100648.94;;;15.16;98.37
74163;BME280;62515;52.758;5.076;2022-09-09T06:18:25;100655.72;;;15.21;98.71
74163;BME280;62515;52.758;5.076;2022-09-09T06:20:54;100653.03;;;15.21;98.83
74163;BME280;62515;52.758;5.076;2022-09-09T06:23:22;100663.31;;;15.25;98.16
74163;BME280;62515;52.758;5.076;2022-09-09T06:26:02;100647.09;;;15.27;98.25
74163;BME280;62515;52.758;5.076;2022-09-09T06:28:29;100665.84;;;15.36;97.75
74163;BME280;62515;52.758;5.076;2022-09-09T06:30:59;100653.84;;;15.40;97.79
74163;BME280;62515;52.758;5.076;2022-09-09T06:33:30;100665.97;;;15.44;97.42
74163;BME280;62515;52.758;5.076;2022-09-09T06:35:57;100656.78;;;15.47;96.79
74163;BME280;62515;52.758;5.076;2022-09-09T06:38:24;100655.56;;;15.51;96.78
74163;BME280;62515;52.758;5.076;2022-09-09T06:40:53;100649.47;;;15.49;96.25
74163;BME280;62515;52.758;5.076;2022-09-09T06:43:23;100653.25;;;15.56;96.64
74163;BME280;62515;52.758;5.076;2022-09-09T06:45:55;100655.94;;;15.56;96.55
74163;BME280;62515;52.758;5.076;2022-09-09T06:48:22;100646.31;;;15.63;96.26
74163;BME280;62515;52.758;5.076;2022-09-09T06:50:49;100655.28;;;15.81;96.66
74163;BME280;62515;52.758;5.076;2022-09-09T06:53:17;100643.78;;;15.98;95.55
74163;BME280;62515;52.758;5.076;2022-09-09T06:55:46;100650.31;;;16.13;94.14
74163;BME280;62515;52.758;5.076;2022-09-09T06:58:13;100650.13;;;16.25;93.52
74163;BME280;62515;52.758;5.076;2022-09-09T07:00:41;100633.72;;;16.28;93.28
74163;BME280;62515;52.758;5.076;2022-09-09T07:03:09;100638.41;;;16.43;93.07
74163;BME280;62515;52.758;5.076;2022-09-09T07:05:36;100648.41;;;16.51;92.76
74163;BME280;62515;52.758;5.076;2022-09-09T07:08:03;100654.31;;;16.54;91.93
74163;BME280;62515;52.758;5.076;2022-09-09T07:10:30;100644.28;;;16.56;92.30
74163;BME280;62515;52.758;5.076;2022-09-09T07:12:57;100649.66;;;16.74;91.13
74163;BME280;62515;52.758;5.076;2022-09-09T07:15:25;100655.50;;;16.87;90.56
74163;BME280;62515;52.758;5.076;2022-09-09T07:17:54;100655.84;;;16.74;91.58
74163;BME280;62515;52.758;5.076;2022-09-09T07:20:21;100658.63;;;16.65;91.28
74163;BME280;62515;52.758;5.076;2022-09-09T07:22:49;100665.13;;;16.45;91.23
74163;BME280;62515;52.758;5.076;2022-09-09T07:25:16;100658.41;;;16.31;91.97
74163;BME280;62515;52.758;5.076;2022-09-09T07:27:45;100664.59;;;16.14;91.88
74163;BME280;62515;52.758;5.076;2022-09-09T07:30:12;100659.88;;;16.26;91.72
74163;BME280;62515;52.758;5.076;2022-09-09T07:32:50;100666.72;;;16.38;91.67
74163;BME280;62515;52.758;5.076;2022-09-09T07:35:19;100667.66;;;16.46;91.02
74163;BME280;62515;52.758;5.076;2022-09-09T07:37:46;100660.28;;;16.48;90.50
74163;BME280;62515;52.758;5.076;2022-09-09T07:40:18;100653.78;;;16.51;89.58
74163;BME280;62515;52.758;5.076;2022-09-09T07:42:47;100661.63;;;16.62;89.78
74163;BME280;62515;52.758;5.076;2022-09-09T07:45:14;100663.25;;;16.72;87.75
74163;BME280;62515;52.758;5.076;2022-09-09T07:47:41;100674.31;;;16.69;87.12
74163;BME280;62515;52.758;5.076;2022-09-09T07:50:09;100671.63;;;16.87;86.92
74163;BME280;62515;52.758;5.076;2022-09-09T07:52:37;100664.25;;;16.89;86.74
74163;BME280;62515;52.758;5.076;2022-09-09T07:55:05;100665.31;;;16.96;87.35
74163;BME280;62515;52.758;5.076;2022-09-09T07:57:32;100660.78;;;16.97;86.29
74163;BME280;62515;52.758;5.076;2022-09-09T08:00:00;100670.47;;;16.90;87.46
74163;BME280;62515;52.758;5.076;2022-09-09T08:02:27;100669.84;;;16.96;86.73
74163;BME280;62515;52.758;5.076;2022-09-09T08:04:56;100670.59;;;16.88;86.24
74163;BME280;62515;52.758;5.076;2022-09-09T08:07:23;100679.59;;;16.79;86.46
74163;BME280;62515;52.758;5.076;2022-09-09T08:09:54;100666.91;;;16.71;87.13
74163;BME280;62515;52.758;5.076;2022-09-09T08:12:27;100668.06;;;16.69;87.86
74163;BME280;62515;52.758;5.076;2022-09-09T08:14:55;100675.06;;;16.80;87.05
74163;BME280;62515;52.758;5.076;2022-09-09T08:17:26;100665.53;;;16.85;86.48
74163;BME280;62515;52.758;5.076;2022-09-09T08:19:53;100673.59;;;17.03;86.14
74163;BME280;62515;52.758;5.076;2022-09-09T08:22:25;100665.44;;;17.12;86.85
74163;BME280;62515;52.758;5.076;2022-09-09T08:24:55;100676.44;;;17.01;86.35
74163;BME280;62515;52.758;5.076;2022-09-09T08:27:23;100674.63;;;16.84;87.32
74163;BME280;62515;52.758;5.076;2022-09-09T08:29:52;100677.59;;;16.81;85.96
74163;BME280;62515;52.758;5.076;2022-09-09T08:32:19;100675.97;;;16.88;86.20
74163;BME280;62515;52.758;5.076;2022-09-09T08:34:46;100677.59;;;16.81;84.74
74163;BME280;62515;52.758;5.076;2022-09-09T08:37:21;100676.53;;;16.74;85.70
74163;BME280;62515;52.758;5.076;2022-09-09T08:39:48;100666.25;;;16.69;86.12
74163;BME280;62515;52.758;5.076;2022-09-09T08:42:32;100681.91;;;16.74;87.05
74163;BME280;62515;52.758;5.076;2022-09-09T08:45:29;100679.59;;;16.79;87.20
74163;BME280;62515;52.758;5.076;2022-09-09T08:48:10;100684.03;;;16.88;86.43
74163;BME280;62515;52.758;5.076;2022-09-09T08:50:40;100682.28;;;16.97;85.96
74163;BME280;62515;52.758;5.076;2022-09-09T08:53:17;100683.97;;;16.98;85.23
74163;BME280;62515;52.758;5.076;2022-09-09T08:55:48;100687.69;;;16.97;85.31
74163;BME280;62515;52.758;5.076;2022-09-09T08:58:23;100686.56;;;17.07;84.15
74163;BME280;62515;52.758;5.076;2022-09-09T09:01:02;100678.50;;;17.25;84.21
74163;BME280;62515;52.758;5.076;2022-09-09T09:03:48;100685.66;;;17.60;82.09
74163;BME280;62515;52.758;5.076;2022-09-09T09:06:35;100684.38;;;17.98;80.36
74163;BME280;62515;52.758;5.076;2022-09-09T09:09:08;100686.97;;;18.15;80.48
74163;BME280;62515;52.758;5.076;2022-09-09T09:11:39;100688.59;;;18.00;80.85
74163;BME280;62515;52.758;5.076;2022-09-09T09:14:15;100696.34;;;18.03;80.97
74163;BME280;62515;52.758;5.076;2022-09-09T09:16:50;100699.34;;;18.00;81.20
74163;BME280;62515;52.758;5.076;2022-09-09T09:19:17;100689.94;;;17.70;81.96
74163;BME280;62515;52.758;5.076;2022-09-09T09:21:51;100704.56;;;17.68;80.70
74163;BME280;62515;52.758;5.076;2022-09-09T09:24:22;100708.03;;;17.60;81.56
74163;BME280;62515;52.758;5.076;2022-09-09T09:26:52;100704.53;;;17.42;81.61
74163;BME280;62515;52.758;5.076;2022-09-09T09:29:24;100704.22;;;17.27;83.95
74163;BME280;62515;52.758;5.076;2022-09-09T09:31:54;100711.31;;;17.11;84.04
74163;BME280;62515;52.758;5.076;2022-09-09T09:34:24;100707.63;;;17.12;84.55
74163;BME280;62515;52.758;5.076;2022-09-09T09:36:54;100709.09;;;17.06;84.84
74163;BME280;62515;52.758;5.076;2022-09-09T09:39:26;100698.34;;;17.06;86.03
74163;BME280;62515;52.758;5.076;2022-09-09T09:42:16;100704.34;;;17.00;84.96
74163;BME280;62515;52.758;5.076;2022-09-09T09:44:50;100710.63;;;16.91;86.50
74163;BME280;62515;52.758;5.076;2022-09-09T09:47:22;100715.22;;;16.81;86.32
74163;BME280;62515;52.758;5.076;2022-09-09T09:50:17;100712.78;;;16.70;87.60
74163;BME280;62515;52.758;5.076;2022-09-09T09:52:54;100707.09;;;16.73;88.65
74163;BME280;62515;52.758;5.076;2022-09-09T09:55:22;100706.81;;;16.94;86.40
74163;BME280;62515;52.758;5.076;2022-09-09T09:57:51;100701.84;;;17.42;85.67
74163;BME280;62515;52.758;5.076;2022-09-09T10:00:22;100702.22;;;17.73;83.46
74163;BME280;62515;52.758;5.076;2022-09-09T10:03:01;100700.38;;;17.73;84.05
74163;BME280;62515;52.758;5.076;2022-09-09T10:05:35;100705.19;;;17.62;83.84
74163;BME280;62515;52.758;5.076;2022-09-09T10:08:11;100686.59;;;17.33;84.98
74163;BME280;62515;52.758;5.076;2022-09-09T10:10:54;100709.63;;;17.10;85.76
74163;BME280;62515;52.758;5.076;2022-09-09T10:13:29;100707.63;;;16.77;89.65
74163;BME280;62515;52.758;5.076;2022-09-09T10:16:13;100710.84;;;16.62;91.67
74163;BME280;62515;52.758;5.076;2022-09-09T10:18:50;100713.84;;;16.77;89.75
74163;BME280;62515;52.758;5.076;2022-09-09T10:24:33;100702.25;;;16.94;88.40
74163;BME280;62515;52.758;5.076;2022-09-09T10:27:11;100704.34;;;17.00;86.66
74163;BME280;62515;52.758;5.076;2022-09-09T10:30:07;100706.41;;;17.06;86.34
74163;BME280;62515;52.758;5.076;2022-09-09T10:32:41;100701.25;;;16.95;86.58
74163;BME280;62515;52.758;5.076;2022-09-09T10:35:19;100698.66;;;16.86;86.01
74163;BME280;62515;52.758;5.076;2022-09-09T10:38:03;100709.03;;;16.81;88.53
74163;BME280;62515;52.758;5.076;2022-09-09T10:40:38;100710.06;;;16.88;89.44
74163;BME280;62515;52.758;5.076;2022-09-09T10:43:17;100710.63;;;16.91;88.26
74163;BME280;62515;52.758;5.076;2022-09-09T10:45:52;100709.16;;;16.79;88.81
74163;BME280;62515;52.758;5.076;2022-09-09T10:48:31;100703.41;;;16.74;89.09
74163;BME280;62515;52.758;5.076;2022-09-09T10:51:18;100694.25;;;16.67;89.60
74163;BME280;62515;52.758;5.076;2022-09-09T10:53:55;100684.28;;;16.59;90.02
74163;BME280;62515;52.758;5.076;2022-09-09T10:56:28;100691.34;;;16.60;88.82
74163;BME280;62515;52.758;5.076;2022-09-09T10:59:00;100696.31;;;16.55;91.25
74163;BME280;62515;52.758;5.076;2022-09-09T11:01:31;100700.97;;;16.53;90.19
74163;BME280;62515;52.758;5.076;2022-09-09T11:04:10;100705.22;;;16.56;89.79
74163;BME280;62515;52.758;5.076;2022-09-09T11:06:41;100699.44;;;16.51;89.60
74163;BME280;62515;52.758;5.076;2022-09-09T11:09:15;100691.78;;;16.56;89.38
74163;BME280;62515;52.758;5.076;2022-09-09T11:11:48;100688.13;;;16.57;88.43
74163;BME280;62515;52.758;5.076;2022-09-09T11:14:19;100699.84;;;16.56;88.71
74163;BME280;62515;52.758;5.076;2022-09-09T11:16:51;100701.81;;;16.54;90.24
74163;BME280;62515;52.758;5.076;2022-09-09T11:19:26;100704.63;;;16.52;90.52
74163;BME280;62515;52.758;5.076;2022-09-09T11:21:55;100700.38;;;16.59;89.23
74163;BME280;62515;52.758;5.076;2022-09-09T11:24:28;100696.97;;;16.67;89.14
74163;BME280;62515;52.758;5.076;2022-09-09T11:27:01;100700.56;;;16.76;89.64
74163;BME280;62515;52.758;5.076;2022-09-09T11:33:06;100698.03;;;16.74;88.17
74163;BME280;62515;52.758;5.076;2022-09-09T11:35:47;100696.72;;;16.78;88.07
74163;BME280;62515;52.758;5.076;2022-09-09T11:38:25;100706.78;;;16.76;88.42
74163;BME280;62515;52.758;5.076;2022-09-09T11:40:57;100692.13;;;16.70;89.93
74163;BME280;62515;52.758;5.076;2022-09-09T11:43:29;100701.16;;;16.69;88.73
74163;BME280;62515;52.758;5.076;2022-09-09T11:45:59;100689.41;;;16.88;88.67
74163;BME280;62515;52.758;5.076;2022-09-09T11:48:32;100689.88;;;17.19;87.23
74163;BME280;62515;52.758;5.076;2022-09-09T11:51:04;100688.06;;;17.45;85.86
74163;BME280;62515;52.758;5.076;2022-09-09T11:53:31;100690.59;;;17.72;84.94
74163;BME280;62515;52.758;5.076;2022-09-09T11:59:06;100697.69;;;17.73;85.22
74163;BME280;62515;52.758;5.076;2022-09-09T12:01:35;100693.78;;;17.68;85.78
74163;BME280;62515;52.758;5.076;2022-09-09T12:07:04;100687.34;;;18.20;82.33
74163;BME280;62515;52.758;5.076;2022-09-09T12:09:45;100674.09;;;18.43;81.52
74163;BME280;62515;52.758;5.076;2022-09-09T12:12:33;100684.97;;;18.17;83.03
74163;BME280;62515;52.758;5.076;2022-09-09T12:15:16;100674.81;;;18.11;82.14
74163;BME280;62515;52.758;5.076;2022-09-09T12:17:45;100673.41;;;18.41;81.84
74163;BME280;62515;52.758;5.076;2022-09-09T12:20:16;100668.47;;;18.78;80.89
74163;BME280;62515;52.758;5.076;2022-09-09T12:22:54;100672.34;;;18.84;80.28
74163;BME280;62515;52.758;5.076;2022-09-09T12:25:30;100658.75;;;18.44;81.76
74163;BME280;62515;52.758;5.076;2022-09-09T12:28:05;100685.09;;;17.82;83.67
74163;BME280;62515;52.758;5.076;2022-09-09T12:30:42;100669.81;;;17.57;84.40
74163;BME280;62515;52.758;5.076;2022-09-09T12:33:18;100666.44;;;17.55;86.63
74163;BME280;62515;52.758;5.076;2022-09-09T12:35:49;100668.06;;;17.73;84.87
74163;BME280;62515;52.758;5.076;2022-09-09T12:38:24;100658.19;;;17.82;83.41
74163;BME280;62515;52.758;5.076;2022-09-09T12:40:54;100663.81;;;18.39;81.01
74163;BME280;62515;52.758;5.076;2022-09-09T12:43:23;100661.56;;;19.32;77.64
74163;BME280;62515;52.758;5.076;2022-09-09T12:45:53;100651.44;;;19.02;79.46
74163;BME280;62515;52.758;5.076;2022-09-09T12:48:29;100637.63;;;18.81;80.81
74163;BME280;62515;52.758;5.076;2022-09-09T12:50:58;100648.41;;;18.89;78.75
74163;BME280;62515;52.758;5.076;2022-09-09T12:53:30;100652.13;;;18.72;78.86
74163;BME280;62515;52.758;5.076;2022-09-09T12:56:00;100640.97;;;18.67;79.50
74163;BME280;62515;52.758;5.076;2022-09-09T12:58:30;100657.19;;;18.91;78.20
74163;BME280;62515;52.758;5.076;2022-09-09T13:01:01;100649.78;;;18.93;78.19
74163;BME280;62515;52.758;5.076;2022-09-09T13:03:32;100657.88;;;19.17;78.28
74163;BME280;62515;52.758;5.076;2022-09-09T13:06:11;100659.03;;;19.63;74.45
74163;BME280;62515;52.758;5.076;2022-09-09T13:08:39;100662.84;;;19.85;74.51
74163;BME280;62515;52.758;5.076;2022-09-09T13:11:10;100658.56;;;18.95;78.01
74163;BME280;62515;52.758;5.076;2022-09-09T13:13:40;100653.63;;;18.66;79.50
74163;BME280;62515;52.758;5.076;2022-09-09T13:16:19;100648.56;;;18.63;80.54
74163;BME280;62515;52.758;5.076;2022-09-09T13:18:47;100646.41;;;18.75;81.58
74163;BME280;62515;52.758;5.076;2022-09-09T13:21:14;100651.28;;;18.88;79.12
74163;BME280;62515;52.758;5.076;2022-09-09T13:23:48;100649.06;;;18.59;79.87